Time;durP1;ratioP1;P1;durP2;ratioP2;P2;SDS_P1;SDS_P2;PMS_P1;PMS_P2;Temp;Humidity;BMP_temperature;BMP_pressure;BME280_temperature;BME280_humidity;BME280_pressure;Samples;Min_cycle;Max_cycle;Signal;HPM_P1;HPM_P2
2023/03/16 03:50:27;;;;;;;10.63;7.75;;;;;;;3.20;92.74;101403.63;6209920;23;20032;-94
2023/03/16 03:52:52;;;;;;;9.63;7.20;;;;;;;3.28;92.69;101412.28;6163972;23;20424;-94
2023/03/16 03:55:18;;;;;;;7.85;7.05;;;;;;;3.18;92.73;101401.00;6159846;23;20109;-93
2023/03/16 03:57:43;;;;;;;8.68;6.93;;;;;;;3.17;92.88;101395.75;6186228;23;20096;-94
2023/03/16 04:00:10;;;;;;;9.02;7.47;;;;;;;3.27;93.03;101410.56;6187580;23;20004;-95
2023/03/16 04:02:37;;;;;;;7.60;6.90;;;;;;;3.18;92.29;101393.13;6187638;23;20009;-95
2023/03/16 04:05:03;;;;;;;8.57;7.07;;;;;;;3.11;92.99;101374.78;6186546;23;20016;-94
2023/03/16 04:07:31;;;;;;;9.02;6.95;;;;;;;3.24;93.21;101397.44;6184453;23;20009;-96
2023/03/16 04:09:56;;;;;;;8.18;6.80;;;;;;;3.26;92.88;101390.41;6185529;23;20032;-95
2023/03/16 04:12:21;;;;;;;8.98;6.47;;;;;;;3.33;92.64;101397.31;6183261;23;20494;-94
2023/03/16 04:14:47;;;;;;;8.48;6.70;;;;;;;3.27;92.23;101381.63;6184463;23;20011;-94
2023/03/16 04:17:12;;;;;;;8.45;7.10;;;;;;;3.20;92.38;101369.41;6183909;23;20009;-94
2023/03/16 04:19:38;;;;;;;7.80;6.70;;;;;;;3.36;92.40;101394.66;6184663;23;19997;-92
2023/03/16 04:22:03;;;;;;;8.35;6.28;;;;;;;3.15;92.92;101355.47;6184124;23;20009;-94
2023/03/16 04:24:33;;;;;;;7.40;6.30;;;;;;;3.23;92.86;101372.03;6183889;23;20012;-95
2023/03/16 04:26:58;;;;;;;7.38;6.05;;;;;;;3.15;92.75;101356.31;6190250;23;20009;-94
2023/03/16 04:29:25;;;;;;;10.23;6.75;;;;;;;3.28;93.00;101380.72;6195839;23;20024;-96
2023/03/16 04:31:52;;;;;;;9.00;6.57;;;;;;;3.17;92.00;101356.28;6196919;23;20056;-94
2023/03/16 04:34:23;;;;;;;9.98;7.05;;;;;;;3.36;92.32;101392.03;6194976;23;19996;-95
2023/03/16 04:36:52;;;;;;;6.78;6.07;;;;;;;3.25;92.64;101368.47;6169700;23;20020;-94
2023/03/16 04:39:19;;;;;;;6.97;6.00;;;;;;;3.39;91.79;101393.75;6171997;23;20440;-93
2023/03/16 04:41:44;;;;;;;7.93;6.47;;;;;;;3.41;92.68;101392.81;6210365;23;19993;-95
2023/03/16 04:44:10;;;;;;;8.43;6.93;;;;;;;3.38;92.37;101384.97;6199214;23;20084;-94
2023/03/16 04:46:35;;;;;;;7.57;6.60;;;;;;;3.41;92.24;101379.66;6193921;23;20008;-95
2023/03/16 04:49:03;;;;;;;7.55;5.60;;;;;;;3.29;92.02;101361.41;6193507;23;20062;-94
2023/03/16 04:51:29;;;;;;;7.88;5.63;;;;;;;3.36;91.77;101365.72;6193109;23;20012;-93
2023/03/16 04:53:54;;;;;;;9.73;6.30;;;;;;;3.27;91.83;101354.44;6193077;23;20073;-94
2023/03/16 04:56:20;;;;;;;7.18;6.22;;;;;;;3.35;91.39;101358.72;6193208;23;20113;-96
2023/03/16 04:58:47;;;;;;;6.47;5.60;;;;;;;3.45;91.92;101376.09;6159065;23;20001;-96
2023/03/16 05:01:13;;;;;;;8.77;6.10;;;;;;;3.28;92.71;101349.16;6185540;23;20005;-96
2023/03/16 05:03:39;;;;;;;7.35;6.22;;;;;;;3.40;92.21;101362.16;6185179;23;20016;-95
2023/03/16 05:06:04;;;;;;;7.00;6.25;;;;;;;3.31;92.19;101340.34;6182721;23;20005;-96
2023/03/16 05:08:30;;;;;;;8.60;6.00;;;;;;;3.37;93.17;101346.38;6185202;23;20008;-95
2023/03/16 05:10:59;;;;;;;9.75;6.18;;;;;;;3.47;91.90;101360.31;6185730;23;20040;-94
2023/03/16 05:13:24;;;;;;;6.82;5.85;;;;;;;3.43;92.21;101356.84;6190338;23;20076;-94
2023/03/16 05:15:52;;;;;;;7.18;5.47;;;;;;;3.42;92.60;101348.97;6195316;23;20008;-94
2023/03/16 05:18:19;;;;;;;8.80;6.00;;;;;;;3.32;93.18;101334.19;6195731;23;20039;-92
2023/03/16 05:20:44;;;;;;;10.68;5.68;;;;;;;3.43;92.93;101348.97;6192927;23;20004;-96
2023/03/16 05:23:10;;;;;;;6.75;6.05;;;;;;;3.41;92.97;101342.84;6187069;23;20005;-94
2023/03/16 05:25:36;;;;;;;7.18;5.80;;;;;;;3.38;93.67;101331.47;6184968;23;20009;-93
2023/03/16 05:28:03;;;;;;;7.13;5.60;;;;;;;3.33;93.19;101320.16;6187035;23;20135;-94
2023/03/16 05:30:29;;;;;;;6.95;5.47;;;;;;;3.33;93.61;101323.63;6185518;23;20024;-92
2023/03/16 05:32:56;;;;;;;6.47;4.95;;;;;;;3.48;93.94;101343.63;6186141;23;20117;-95
2023/03/16 05:35:22;;;;;;;7.00;6.30;;;;;;;3.38;92.81;101326.22;6187170;23;20039;-95
2023/03/16 05:37:47;;;;;;;7.10;5.97;;;;;;;3.65;92.91;101370.59;6206735;23;19993;-94
2023/03/16 05:40:17;;;;;;;6.50;5.82;;;;;;;3.49;93.29;101342.72;6207398;23;20001;-94
2023/03/16 05:42:44;;;;;;;8.15;6.13;;;;;;;3.43;93.38;101327.91;6208924;23;20000;-94
2023/03/16 05:45:10;;;;;;;7.75;5.70;;;;;;;3.69;93.22;101366.16;6208285;23;19997;-93
2023/03/16 05:47:36;;;;;;;6.25;4.93;;;;;;;3.38;93.67;101308.66;6208014;23;19997;-94
2023/03/16 05:50:04;;;;;;;6.45;5.53;;;;;;;3.39;92.96;101312.19;6209002;23;20028;-94
2023/03/16 05:52:29;;;;;;;6.45;5.80;;;;;;;3.70;93.68;101350.31;6209031;23;20085;-95
2023/03/16 05:54:54;;;;;;;6.68;5.60;;;;;;;3.44;93.79;101307.72;6209768;23;19989;-94
2023/03/16 05:57:20;;;;;;;7.50;5.80;;;;;;;3.58;94.26;101328.56;6210237;23;19993;-93
2023/03/16 05:59:47;;;;;;;7.53;5.63;;;;;;;3.58;92.59;101315.41;6210104;23;20028;-93
2023/03/16 06:02:12;;;;;;;7.88;5.50;;;;;;;3.53;92.51;101309.34;6211634;23;20005;-93
2023/03/16 06:04:38;;;;;;;6.95;5.10;;;;;;;3.60;92.92;101321.53;6211097;23;19991;-93
2023/03/16 06:07:04;;;;;;;6.50;5.72;;;;;;;3.67;93.30;101333.69;6211282;23;20053;-94
2023/03/16 06:09:29;;;;;;;6.45;5.65;;;;;;;3.53;92.41;101307.59;6194027;23;20009;-94
2023/03/16 06:11:54;;;;;;;8.45;6.28;;;;;;;3.62;92.37;101319.75;6189919;23;20439;-94
2023/03/16 06:14:22;;;;;;;7.40;6.00;;;;;;;3.84;92.20;101357.13;6189632;23;20260;-92
2023/03/16 06:16:48;;;;;;;8.88;6.13;;;;;;;3.67;92.50;101324.03;6189699;23;20005;-94
2023/03/16 06:19:13;;;;;;;7.15;5.78;;;;;;;3.65;92.11;101322.34;6189252;23;20004;-93
2023/03/16 06:21:38;;;;;;;6.80;5.72;;;;;;;3.74;91.73;101330.09;6186784;23;20012;-94
2023/03/16 06:24:06;;;;;;;7.55;5.82;;;;;;;3.93;92.09;101350.00;6190530;23;20024;-95
2023/03/16 06:26:31;;;;;;;7.05;5.90;;;;;;;3.66;91.99;101303.88;6160938;23;20001;-88
2023/03/16 06:28:57;;;;;;;7.72;5.78;;;;;;;3.70;91.96;101305.56;6185892;23;20009;-93
2023/03/16 06:31:30;;;;;;;8.27;5.82;;;;;;;3.81;91.97;101315.09;6185932;23;20005;-94
2023/03/16 06:33:59;;;;;;;7.30;5.57;;;;;;;3.87;92.42;101321.09;6195078;23;20012;-96
2023/03/16 06:36:25;;;;;;;7.82;5.55;;;;;;;3.92;92.22;101321.03;6193693;23;20024;-95
2023/03/16 06:38:51;;;;;;;7.55;5.35;;;;;;;3.81;91.97;101302.78;6195381;23;20001;-94
2023/03/16 06:41:16;;;;;;;6.30;5.50;;;;;;;3.95;92.11;101318.34;6196817;23;20327;-96
2023/03/16 06:43:42;;;;;;;8.63;5.65;;;;;;;3.80;93.45;101287.84;6185788;23;20020;-93
2023/03/16 06:46:07;;;;;;;6.20;5.25;;;;;;;3.87;91.64;101302.66;6186941;23;20292;-96
2023/03/16 06:48:33;;;;;;;6.10;5.50;;;;;;;3.95;92.77;101303.41;6179968;23;20403;-94
2023/03/16 06:50:58;;;;;;;8.88;5.60;;;;;;;4.04;92.88;101301.53;6156468;23;19997;-95
2023/03/16 06:53:23;;;;;;;6.82;5.38;;;;;;;4.09;92.80;101302.31;6155610;23;20065;-95
2023/03/16 06:55:50;;;;;;;6.55;5.35;;;;;;;4.05;91.22;101290.97;6159168;23;20051;-96
2023/03/16 06:58:18;;;;;;;7.45;5.25;;;;;;;4.16;90.45;101303.97;6162239;23;20005;-95
2023/03/16 07:00:44;;;;;;;6.05;5.40;;;;;;;4.18;91.48;101305.69;6177870;23;20021;-94
2023/03/16 07:03:09;;;;;;;6.88;5.10;;;;;;;4.22;90.20;101303.84;6172111;23;20005;-94
2023/03/16 07:05:34;;;;;;;7.65;5.35;;;;;;;4.19;91.04;101296.00;6154059;23;20017;-95
2023/03/16 07:08:00;;;;;;;8.10;5.50;;;;;;;4.25;90.54;101295.88;6155649;23;20012;-95
2023/03/16 07:10:25;;;;;;;6.95;5.30;;;;;;;4.17;90.36;101295.16;6178663;23;20411;-94
2023/03/16 07:12:51;;;;;;;8.18;5.57;;;;;;;4.19;90.24;101288.09;6154355;23;20113;-94
2023/03/16 07:15:16;;;;;;;8.88;5.40;;;;;;;4.33;89.80;101309.81;6155211;23;20001;-94
2023/03/16 07:17:42;;;;;;;9.63;5.60;;;;;;;4.33;90.74;101290.50;6154182;23;20005;-96
2023/03/16 07:20:09;;;;;;;6.55;5.47;;;;;;;4.53;90.09;101313.84;6154846;23;20005;-93
2023/03/16 07:22:38;;;;;;;5.82;5.22;;;;;;;4.47;88.74;101281.44;6160061;23;20021;-96
2023/03/16 07:25:05;;;;;;;7.63;5.35;;;;;;;4.44;87.36;101273.59;6160060;23;20017;-95
2023/03/16 07:27:30;;;;;;;7.70;5.20;;;;;;;4.70;88.16;101312.63;6151620;23;20336;-94
2023/03/16 07:29:55;;;;;;;8.00;4.97;;;;;;;4.63;87.83;101295.19;6151528;23;20012;-95
2023/03/16 07:32:21;;;;;;;7.07;5.70;;;;;;;4.58;87.79;101281.22;6151324;23;20016;-95
2023/03/16 07:34:47;;;;;;;7.90;5.70;;;;;;;4.88;87.05;101316.66;6152350;23;20324;-94
2023/03/16 07:37:14;;;;;;;8.20;5.75;;;;;;;4.68;87.14;101271.34;6153463;23;20019;-94
2023/03/16 07:39:40;;;;;;;8.73;5.57;;;;;;;4.72;86.25;101280.94;6181276;23;20013;-94
2023/03/16 07:42:06;;;;;;;8.95;5.80;;;;;;;4.83;86.38;101294.81;6159715;23;20001;-93
2023/03/16 07:44:31;;;;;;;8.65;5.93;;;;;;;4.81;86.36;101287.81;6159109;23;20021;-95
2023/03/16 07:46:57;;;;;;;7.45;5.60;;;;;;;4.85;85.35;101282.47;6156999;23;20032;-94
2023/03/16 07:49:22;;;;;;;7.78;5.60;;;;;;;4.91;86.53;101302.56;6171192;23;20040;-92
2023/03/16 07:51:48;;;;;;;8.45;5.50;;;;;;;4.96;84.90;101300.69;6181963;23;20016;-91
2023/03/16 07:54:14;;;;;;;6.80;5.30;;;;;;;5.09;83.79;101309.22;6183294;23;20005;-95
2023/03/16 07:56:40;;;;;;;9.25;5.75;;;;;;;4.97;82.95;101281.31;6183394;23;20012;-93
2023/03/16 07:59:06;;;;;;;8.15;5.63;;;;;;;5.14;83.20;101310.00;6186334;23;20005;-95
2023/03/16 08:01:33;;;;;;;7.38;5.50;;;;;;;5.08;84.01;101283.75;6189822;23;20005;-94
2023/03/16 08:03:58;;;;;;;8.07;5.97;;;;;;;5.12;81.69;101283.66;6202458;23;20009;-94
2023/03/16 08:06:24;;;;;;;7.15;5.28;;;;;;;5.30;82.15;101300.84;6207164;23;19997;-93
2023/03/16 08:08:50;;;;;;;8.02;5.53;;;;;;;5.54;81.27;101328.50;6207638;23;20012;-94
2023/03/16 08:11:22;;;;;;;9.32;5.80;;;;;;;5.32;80.69;101285.88;6208446;23;20009;-95
2023/03/16 08:13:55;;;;;;;8.70;5.57;;;;;;;5.26;80.97;101267.50;6209491;23;20000;-93
2023/03/16 08:16:21;;;;;;;10.57;5.38;;;;;;;5.59;80.44;101310.75;6210471;23;20020;-95
2023/03/16 08:18:48;;;;;;;7.50;5.78;;;;;;;5.82;81.03;101315.53;6210423;23;20028;-95
2023/03/16 08:21:14;;;;;;;8.27;5.82;;;;;;;5.85;78.94;101294.34;6195146;23;20005;-94
2023/03/16 08:23:39;;;;;;;7.63;6.07;;;;;;;5.96;79.03;101289.66;6186904;23;20079;-93
2023/03/16 08:26:07;;;;;;;9.18;6.03;;;;;;;6.13;79.33;101314.81;6160395;23;20113;-93
2023/03/16 08:28:34;;;;;;;8.50;6.22;;;;;;;6.06;79.17;101287.69;6186429;23;20008;-94
2023/03/16 08:30:59;;;;;;;7.00;5.53;;;;;;;6.19;79.19;101285.59;6187693;23;20001;-93
2023/03/16 08:33:25;;;;;;;8.20;6.03;;;;;;;6.58;77.48;101307.47;6186999;23;20009;-93
2023/03/16 08:35:50;;;;;;;6.80;5.57;;;;;;;6.57;76.90;101278.41;6192615;23;20048;-93
2023/03/16 08:38:16;;;;;;;8.48;6.20;;;;;;;6.78;75.98;101295.47;6201490;23;19997;-92
2023/03/16 08:40:47;;;;;;;7.47;5.72;;;;;;;6.76;75.90;101290.22;6190247;23;20004;-92
2023/03/16 08:43:16;;;;;;;8.45;5.65;;;;;;;6.85;75.48;101295.25;6185547;23;20013;-93
2023/03/16 08:45:44;;;;;;;5.78;5.15;;;;;;;6.83;73.84;101290.91;6183608;23;20427;-93
2023/03/16 08:48:11;;;;;;;6.68;5.40;;;;;;;6.89;75.32;101285.44;6184241;23;20101;-93
2023/03/16 08:50:39;;;;;;;7.47;5.43;;;;;;;6.80;73.71;101273.34;6183626;23;20021;-94
2023/03/16 08:53:04;;;;;;;6.30;5.03;;;;;;;7.06;73.88;101319.34;6184625;23;20388;-94
2023/03/16 08:55:29;;;;;;;6.53;5.00;;;;;;;6.75;73.55;101272.59;6182097;23;20028;-94
2023/03/16 08:57:55;;;;;;;6.93;5.32;;;;;;;6.93;74.46;101311.75;6182755;23;20378;-93
2023/03/16 09:00:20;;;;;;;7.45;5.40;;;;;;;6.88;74.22;101304.88;6156798;23;20001;-93
2023/03/16 09:02:46;;;;;;;7.65;5.15;;;;;;;6.69;74.65;101271.00;6156366;23;20289;-92
2023/03/16 09:05:13;;;;;;;6.18;4.95;;;;;;;6.93;73.73;101295.03;6155949;23;20463;-93
2023/03/16 09:07:39;;;;;;;8.80;4.72;;;;;;;6.97;73.16;101276.38;6182052;23;20036;-93
2023/03/16 09:10:06;;;;;;;7.85;4.95;;;;;;;7.09;71.24;101274.28;6183053;23;20008;-92
2023/03/16 09:12:34;;;;;;;8.38;5.00;;;;;;;7.37;72.38;101267.25;6182593;23;20005;-93
2023/03/16 09:15:00;;;;;;;6.15;4.68;;;;;;;7.68;71.21;101271.56;6182285;23;20036;-94
2023/03/16 09:17:27;;;;;;;7.95;5.22;;;;;;;7.91;68.21;101276.13;6183407;23;20001;-93
2023/03/16 09:19:52;;;;;;;9.80;5.22;;;;;;;7.78;67.90;101246.53;6182721;23;20005;-94
2023/03/16 09:22:19;;;;;;;8.45;4.88;;;;;;;7.92;67.74;101283.16;6188679;23;20001;-94
2023/03/16 09:24:44;;;;;;;6.40;4.90;;;;;;;7.92;68.06;101260.19;6206828;23;20072;-95
2023/03/16 09:27:09;;;;;;;7.05;4.90;;;;;;;8.17;67.07;101275.25;6208690;23;19997;-95
2023/03/16 09:29:35;;;;;;;7.40;4.82;;;;;;;8.81;67.10;101290.72;6208108;23;20023;-95
2023/03/16 09:32:00;;;;;;;6.72;4.47;;;;;;;9.04;64.52;101266.00;6209116;23;20426;-92
2023/03/16 09:34:26;;;;;;;5.70;4.13;;;;;;;9.41;62.75;101263.66;6207396;23;20019;-95
2023/03/16 09:36:52;;;;;;;4.70;3.83;;;;;;;9.52;61.96;101259.69;6204708;23;20060;-96
2023/03/16 09:39:18;;;;;;;4.90;3.58;;;;;;;9.55;61.26;101246.28;6236223;23;20043;-96
2023/03/16 09:41:52;;;;;;;5.93;4.00;;;;;;;9.65;60.43;101264.44;6236253;23;20013;-96
2023/03/16 09:44:32;;;;;;;4.22;3.80;;;;;;;9.70;61.83;101290.88;6237564;23;20016;-96
2023/03/16 09:47:00;;;;;;;7.38;4.07;;;;;;;9.44;61.10;101236.94;6196989;23;20005;-96
2023/03/16 09:49:30;;;;;;;5.10;3.47;;;;;;;9.70;61.14;101256.31;6215014;23;20012;-94
2023/03/16 09:52:22;;;;;;;5.20;3.53;;;;;;;10.13;61.48;101291.75;6215417;23;20008;-96
2023/03/16 09:54:50;;;;;;;6.55;3.85;;;;;;;10.21;57.70;101263.06;6218104;23;20032;-94
2023/03/16 09:57:28;;;;;;;6.78;3.92;;;;;;;10.47;58.90;101240.66;6218500;23;20000;-95
2023/03/16 10:00:01;;;;;;;4.53;3.05;;;;;;;12.62;54.46;101271.16;6217112;23;20369;-93
2023/03/16 10:02:52;;;;;;;5.53;3.70;;;;;;;13.12;53.49;101239.06;6218845;23;20407;-92
2023/03/16 10:05:21;;;;;;;4.88;3.53;;;;;;;12.85;51.95;101228.09;6223744;23;20004;-96
2023/03/16 10:07:57;;;;;;;5.40;3.55;;;;;;;14.64;48.82;101257.06;6219737;23;20004;-93
2023/03/16 10:10:46;;;;;;;4.88;3.00;;;;;;;16.62;42.79;101253.91;6228846;23;19997;-95
2023/03/16 10:13:35;;;;;;;3.95;2.72;;;;;;;16.92;43.60;101218.66;6216328;23;20011;-93
2023/03/16 10:16:13;;;;;;;4.60;3.03;;;;;;;16.28;40.92;101207.03;6215392;23;20008;-94
2023/03/16 10:18:45;;;;;;;4.03;2.45;;;;;;;16.32;41.43;101251.53;6230065;23;20011;-94
2023/03/16 10:21:13;;;;;;;5.57;3.08;;;;;;;16.83;39.54;101202.31;6226869;23;20000;-95
2023/03/16 10:23:41;;;;;;;4.60;2.88;;;;;;;17.48;37.69;101199.38;6226485;23;20009;-94
2023/03/16 10:26:22;;;;;;;4.32;2.72;;;;;;;18.52;38.52;101212.13;6231945;23;19996;-95
2023/03/16 10:28:48;;;;;;;3.97;2.72;;;;;;;19.21;35.49;101196.72;6240339;23;20017;-94
2023/03/16 10:31:19;;;;;;;3.53;2.65;;;;;;;20.16;32.66;101234.72;6239035;23;19995;-94
2023/03/16 10:33:44;;;;;;;3.63;2.40;;;;;;;19.36;32.92;101191.91;6238833;23;20072;-93
2023/03/16 10:36:24;;;;;;;5.68;2.60;;;;;;;18.75;35.29;101192.31;6238482;22;19997;-94
2023/03/16 10:38:56;;;;;;;4.72;2.40;;;;;;;17.87;35.43;101200.94;6234958;23;20051;-91
2023/03/16 10:41:34;;;;;;;3.53;2.75;;;;;;;17.55;37.50;101215.91;6231099;23;20000;-94
2023/03/16 10:44:10;;;;;;;5.03;2.70;;;;;;;17.30;37.18;101239.22;6220206;23;20004;-94
2023/03/16 10:46:39;;;;;;;4.50;2.33;;;;;;;17.38;36.92;101185.72;6214969;23;20000;-94
2023/03/16 10:49:18;;;;;;;5.50;2.53;;;;;;;18.24;36.37;101224.19;6215538;23;20001;-92
2023/03/16 10:51:43;;;;;;;4.78;2.40;;;;;;;17.80;35.61;101217.66;6215364;23;20008;-93
2023/03/16 10:54:18;;;;;;;3.28;2.25;;;;;;;17.21;36.82;101193.31;6215674;23;20000;-93
2023/03/16 10:56:44;;;;;;;3.40;2.38;;;;;;;16.83;36.37;101176.31;6191796;23;20378;-94
2023/03/16 10:59:15;;;;;;;4.40;2.65;;;;;;;16.68;38.21;101215.00;6219976;23;20502;-93
2023/03/16 11:01:45;;;;;;;3.42;2.28;;;;;;;16.71;36.13;101233.59;6214378;23;20335;-94
2023/03/16 11:04:15;;;;;;;3.05;2.10;;;;;;;16.41;37.59;101205.22;6215449;23;20016;-94
2023/03/16 11:06:50;;;;;;;4.90;2.25;;;;;;;17.39;38.31;101194.69;6188776;23;20019;-94
2023/03/16 11:09:23;;;;;;;3.85;2.50;;;;;;;18.25;36.68;101166.63;6214107;23;20028;-94
2023/03/16 11:11:49;;;;;;;4.93;2.70;;;;;;;18.66;35.30;101164.22;6213762;23;20431;-95
2023/03/16 11:14:21;;;;;;;3.90;2.42;;;;;;;18.95;33.32;101176.41;6220785;23;20085;-94
2023/03/16 11:17:13;;;;;;;4.70;2.30;;;;;;;19.60;33.86;101179.03;6216072;23;20212;-93
2023/03/16 11:20:16;;;;;;;3.17;2.00;;;;;;;20.29;35.03;101167.81;6204369;23;20028;-94
2023/03/16 11:22:45;;;;;;;4.15;2.38;;;;;;;20.79;31.52;101148.19;6201138;23;20031;-94
2023/03/16 11:25:10;;;;;;;5.00;2.30;;;;;;;21.67;31.33;101174.47;6212226;23;20032;-94
2023/03/16 11:27:50;;;;;;;5.40;2.30;;;;;;;21.88;30.67;101158.91;6213267;23;20434;-94
2023/03/16 11:30:28;;;;;;;4.28;2.38;;;;;;;21.20;30.92;101165.25;6212039;23;20004;-93
2023/03/16 11:32:54;;;;;;;5.50;2.38;;;;;;;20.05;31.93;101145.63;6210199;23;20445;-92
2023/03/16 11:35:27;;;;;;;2.60;2.08;;;;;;;19.36;31.55;101137.94;6208959;23;20024;-90
2023/03/16 11:38:14;;;;;;;3.60;2.30;;;;;;;19.45;35.04;101169.53;6217270;23;20012;-91
2023/03/16 11:40:44;;;;;;;3.13;2.08;;;;;;;18.76;34.98;101137.41;6213508;23;20009;-92
2023/03/16 11:43:46;;;;;;;4.55;2.30;;;;;;;18.38;33.76;101146.69;6210424;23;20008;-91
2023/03/16 11:46:24;;;;;;;3.63;1.90;;;;;;;17.81;35.36;101131.41;6211876;23;20016;-92
2023/03/16 11:49:00;;;;;;;5.68;2.00;;;;;;;17.99;35.67;101107.56;6211837;23;20005;-90
2023/03/16 11:51:39;;;;;;;2.97;1.70;;;;;;;18.34;34.50;101126.34;6211790;23;20027;-90
2023/03/16 11:54:35;;;;;;;3.22;1.90;;;;;;;18.71;34.16;101131.53;6210498;23;20008;-89
2023/03/16 11:57:25;;;;;;;2.47;1.73;;;;;;;18.89;34.28;101135.47;6184243;23;20107;-89
2023/03/16 12:00:01;;;;;;;3.65;1.80;;;;;;;18.59;32.59;101127.94;6211915;23;20003;-91
2023/03/16 12:03:04;;;;;;;4.07;1.52;;;;;;;18.17;34.15;101127.66;6214094;23;20005;-89
2023/03/16 12:06:07;;;;;;;4.30;1.80;;;;;;;17.78;34.58;101131.63;6212800;23;20028;-90
2023/03/16 12:08:43;;;;;;;2.75;2.00;;;;;;;17.48;33.46;101123.16;6210900;23;20005;-90
2023/03/16 12:11:27;;;;;;;4.60;1.52;;;;;;;17.51;32.89;101120.22;6212088;23;20005;-90
2023/03/16 12:14:50;;;;;;;3.28;1.75;;;;;;;18.31;33.67;101101.47;6210141;23;20015;-92
2023/03/16 12:17:22;;;;;;;3.50;1.80;;;;;;;18.26;32.05;101104.53;6149114;23;20455;-90
2023/03/16 12:19:53;;;;;;;3.63;1.90;;;;;;;18.64;31.74;101104.19;6148404;23;20096;-90
2023/03/16 12:22:28;;;;;;;2.78;1.85;;;;;;;19.41;30.67;101114.94;6148176;23;20013;-90
2023/03/16 12:24:54;;;;;;;4.35;2.08;;;;;;;20.42;28.84;101112.69;6147293;23;20009;-90
2023/03/16 12:27:36;;;;;;;4.43;2.20;;;;;;;22.04;28.92;101101.41;6148768;23;20036;-91
2023/03/16 12:30:26;;;;;;;3.80;1.70;;;;;;;23.08;26.18;101106.75;6148868;23;20395;-91
2023/03/16 12:33:01;;;;;;;4.32;1.90;;;;;;;24.51;25.53;101093.84;6162308;23;19989;-91
2023/03/16 12:35:58;;;;;;;4.97;1.60;;;;;;;25.70;25.94;101084.59;6176693;23;19997;-91
2023/03/16 12:38:43;;;;;;;5.15;2.03;;;;;;;25.86;25.09;101083.78;6154830;23;20002;-90
2023/03/16 12:41:42;;;;;;;2.95;1.70;;;;;;;26.22;24.52;101076.91;6178018;23;19993;-91
2023/03/16 12:44:48;;;;;;;2.33;1.60;;;;;;;26.35;24.44;101059.97;6177347;23;20002;-92
2023/03/16 12:47:18;;;;;;;3.60;1.50;;;;;;;26.17;21.81;101060.22;6072682;23;20005;-91
2023/03/16 12:49:44;;;;;;;3.17;1.58;;;;;;;26.41;21.37;101050.22;6119224;23;20021;-92
2023/03/16 12:52:12;;;;;;;2.17;1.45;;;;;;;26.29;22.00;101041.56;6120679;23;19998;-90
2023/03/16 12:54:52;;;;;;;3.70;1.63;;;;;;;27.06;22.39;101037.13;6115205;23;20155;-92
2023/03/16 12:57:19;;;;;;;2.88;1.70;;;;;;;26.85;21.19;101033.34;6092634;23;20011;-90
2023/03/16 12:59:49;;;;;;;3.72;1.70;;;;;;;26.31;21.34;101017.69;6093052;23;20032;-92
2023/03/16 13:02:18;;;;;;;3.20;1.50;;;;;;;26.42;20.84;101027.34;6094758;23;20061;-94
2023/03/16 13:04:47;;;;;;;3.00;1.30;;;;;;;26.56;21.13;101032.13;6092764;23;20123;-91
2023/03/16 13:07:22;;;;;;;2.88;1.60;;;;;;;26.58;21.84;101016.41;6093727;23;20037;-93
2023/03/16 13:09:57;;;;;;;2.10;1.55;;;;;;;26.57;21.29;101015.56;6093863;23;20002;-94
2023/03/16 13:12:35;;;;;;;2.47;1.42;;;;;;;27.07;21.54;101010.66;6105243;23;20006;-96
2023/03/16 13:15:01;;;;;;;3.35;1.92;;;;;;;26.62;20.01;101006.81;6107332;23;20021;-94
2023/03/16 13:17:35;;;;;;;2.80;1.52;;;;;;;26.60;21.67;101008.06;6133619;22;20040;-96
2023/03/16 13:20:22;;;;;;;3.00;1.48;;;;;;;25.69;21.26;100977.44;6220998;23;20091;-92
2023/03/16 13:23:23;;;;;;;3.05;1.40;;;;;;;26.66;22.60;100991.78;6232981;22;20015;-96
2023/03/16 13:26:13;;;;;;;3.40;1.50;;;;;;;27.02;21.97;100992.06;6230349;22;20024;-93
2023/03/16 13:28:39;;;;;;;3.20;1.38;;;;;;;27.54;20.10;100976.81;6237356;22;20005;-89
2023/03/16 13:31:42;;;;;;;3.95;1.48;;;;;;;27.87;21.82;100991.03;6233150;23;20004;-93
2023/03/16 13:34:14;;;;;;;2.97;1.55;;;;;;;27.01;20.73;100965.81;6223842;23;20001;-93
2023/03/16 13:36:43;;;;;;;2.17;1.42;;;;;;;26.96;20.43;100997.41;6225214;23;20004;-94
2023/03/16 13:39:14;;;;;;;2.70;1.60;;;;;;;26.54;21.40;100950.44;6229840;23;20005;-93
2023/03/16 13:41:39;;;;;;;3.78;1.60;;;;;;;26.82;19.81;100933.50;6231784;23;20009;-92
2023/03/16 13:44:13;;;;;;;3.20;1.30;;;;;;;26.65;21.03;100938.22;6236247;23;20057;-96
2023/03/16 13:46:39;;;;;;;1.73;1.40;;;;;;;26.79;20.64;100956.53;6202409;23;20014;-93
2023/03/16 13:49:04;;;;;;;20.20;3.17;;;;;;;26.36;20.51;100966.16;6196383;23;20482;-91
2023/03/16 13:51:35;;;;;;;3.50;1.80;;;;;;;25.91;21.75;100953.22;6222983;23;20086;-88
2023/03/16 13:54:15;;;;;;;2.42;1.40;;;;;;;25.61;22.22;100933.84;6222942;23;20259;-92
2023/03/16 13:56:42;;;;;;;2.38;1.40;;;;;;;25.15;21.73;100944.47;6221417;23;20022;-91
2023/03/16 13:59:09;;;;;;;3.15;1.65;;;;;;;25.07;22.36;100914.47;6220733;23;20001;-89
2023/03/16 14:01:34;;;;;;;4.65;2.22;;;;;;;25.61;22.50;100938.44;6220598;23;20087;-93
2023/03/16 14:04:07;;;;;;;3.25;1.73;;;;;;;25.14;22.19;100923.69;6218962;23;20067;-92
2023/03/16 14:06:34;;;;;;;5.15;1.92;;;;;;;25.15;22.27;100932.72;6220689;23;20035;-94
2023/03/16 14:09:15;;;;;;;5.22;1.75;;;;;;;24.85;23.23;100900.50;6221334;23;20091;-91
2023/03/16 14:11:43;;;;;;;2.78;1.58;;;;;;;23.97;22.99;100904.72;6221309;23;20039;-93
2023/03/16 14:14:22;;;;;;;3.38;1.50;;;;;;;23.54;23.73;100903.78;6220829;23;20004;-94
2023/03/16 14:16:48;;;;;;;3.22;1.63;;;;;;;23.58;24.56;100910.59;6195870;23;20028;-94
2023/03/16 14:19:18;;;;;;;3.05;1.77;;;;;;;23.35;24.14;100907.56;6221524;23;20012;-95
2023/03/16 14:21:44;;;;;;;2.67;1.60;;;;;;;23.51;23.93;100921.25;6222921;23;20487;-93
2023/03/16 14:24:28;;;;;;;5.65;1.70;;;;;;;23.03;24.99;100884.59;6220544;23;20001;-94
2023/03/16 14:27:07;;;;;;;2.30;1.38;;;;;;;22.34;25.63;100885.28;6213913;23;20009;-94
2023/03/16 14:29:33;;;;;;;5.22;1.50;;;;;;;22.12;25.64;100883.81;6220885;23;20024;-94
2023/03/16 14:31:59;;;;;;;3.15;1.70;;;;;;;21.55;25.29;100877.69;6221385;23;20445;-94
2023/03/16 14:34:34;;;;;;;2.60;1.35;;;;;;;21.18;27.52;100883.03;6220807;23;20023;-92
2023/03/16 14:37:18;;;;;;;3.58;1.50;;;;;;;21.06;28.13;100855.25;6220645;23;20064;-92
2023/03/16 14:39:45;;;;;;;3.33;1.58;;;;;;;20.43;27.63;100865.66;6225527;23;20065;-94
2023/03/16 14:42:29;;;;;;;2.70;1.50;;;;;;;20.32;28.21;100864.81;6224659;23;20014;-93
2023/03/16 14:44:58;;;;;;;3.13;1.70;;;;;;;19.20;27.84;100854.16;6220909;23;20012;-95
2023/03/16 14:47:29;;;;;;;2.50;1.60;;;;;;;18.95;28.46;100858.97;6223723;23;20005;-94
2023/03/16 14:49:59;;;;;;;2.40;1.58;;;;;;;18.77;28.74;100885.69;6225822;23;20001;-94
2023/03/16 14:52:30;;;;;;;2.53;1.25;;;;;;;18.63;30.59;100884.09;6226554;23;20004;-95
2023/03/16 14:54:57;;;;;;;3.08;1.52;;;;;;;18.13;29.20;100845.19;6233245;22;20048;-95
2023/03/16 14:57:24;;;;;;;1.92;1.52;;;;;;;17.88;29.89;100857.13;6239451;22;20013;-95
2023/03/16 14:59:50;;;;;;;2.25;1.40;;;;;;;17.71;30.96;100858.44;6240632;22;20076;-94
2023/03/16 15:02:21;;;;;;;3.80;1.55;;;;;;;17.48;31.44;100849.53;6240827;22;20032;-93
2023/03/16 15:04:47;;;;;;;3.38;1.48;;;;;;;17.41;32.11;100857.22;6240962;22;20016;-94
2023/03/16 15:07:35;;;;;;;3.75;1.60;;;;;;;17.38;31.92;100862.00;6240898;22;19996;-93
2023/03/16 15:10:05;;;;;;;2.80;1.42;;;;;;;17.26;32.37;100874.56;6240879;22;20169;-95
2023/03/16 15:12:33;;;;;;;3.55;1.80;;;;;;;16.99;30.50;100863.28;6241250;22;20048;-95
2023/03/16 15:15:15;;;;;;;3.72;1.45;;;;;;;16.74;33.04;100851.75;6241794;22;20015;-94
2023/03/16 15:17:45;;;;;;;4.18;1.80;;;;;;;16.48;32.73;100817.91;6232233;22;20004;-96
2023/03/16 15:20:16;;;;;;;2.92;2.00;;;;;;;16.52;33.56;100816.72;6224991;23;20001;-95
2023/03/16 15:22:43;;;;;;;3.10;1.70;;;;;;;16.43;33.37;100808.38;6225018;23;20004;-95
2023/03/16 15:25:35;;;;;;;2.83;1.58;;;;;;;16.50;33.72;100862.47;6225832;23;20000;-94
2023/03/16 15:28:22;;;;;;;4.72;1.70;;;;;;;16.28;34.26;100814.03;6226387;23;20009;-95
2023/03/16 15:30:50;;;;;;;3.35;1.63;;;;;;;16.16;33.79;100821.19;6197538;23;20066;-94
2023/03/16 15:33:16;;;;;;;2.53;1.27;;;;;;;16.11;33.49;100809.94;6223892;23;20444;-93
2023/03/16 15:35:43;;;;;;;3.58;1.63;;;;;;;16.29;34.23;100848.84;6223898;23;20011;-96